• Join FlightAware (Why Join?)
  • Login
  • US Flag 
05:17AM EST


 

Airport Tracker/Info


-or-


 

Live Flight TrackerFlight Track Log ✈ CHQ4749 ✈ 30-Sep-2013 ✈ KALB - KCLE

Flight Track Log - Related Links

Times and Time Zones

All times are in EDT time to prevent confusion due to time zone crossing. See the CHQ4749 flight status page for this flight to view local times or setup timezone preferences in your user account.

Time Position Orientation Groundspeed Altitude Reporting Facility
EDT Latitude Longitude Course Direction KTS MPH feet Rate Location/Type
05:41AM 42.7761 -73.8086 303° West 167 192 1,200  Level Boston Center
05:41AM 42.7806 -73.8072 13° North 165 190 1,300 2,100 Climbing Boston Center
05:42AM 42.8192 -73.8447 325° Northwest 179 206 3,500 2,220 Climbing Boston Center
05:43AM 42.6943 -74.2230 283° West  Level Estimated
05:43AM 42.8619 -73.9019 316° Northwest 200 230 5,700  Level Boston Center
05:43AM 42.8619 -73.9019 316° Northwest 205 236 5,700 1,860 Level Boston Center
05:44AM 42.6757 -74.3631 281° West  Level Estimated
05:44AM 42.9083 -73.9633 316° Northwest 228 262 7,600  Level Boston Center
05:45AM 42.7320 -74.4832 303° West  Level FlightAware Approximate
05:45AM 42.9583 -74.0331 314° West 255 293 9,700  Level Boston Center
05:46AM 42.7882 -74.6036 303° West  Level FlightAware Approximate
05:46AM 42.9719 -74.1347 280° West 278 320 11,200  Level Boston Center
05:47AM 42.9839 -74.2508 278° West 309 356 12,500 1,260 Climbing Boston Center
05:48AM 42.9964 -74.3756 278° West 330 380 13,800 1,380 Climbing Boston Center
05:49AM 43.0094 -74.5047 278° West 345 397 15,300 1,500 Climbing Boston Center
05:50AM 43.0217 -74.6358 277° West 349 402 16,800 1,440 Climbing Boston Center
05:51AM 43.0331 -74.7669 277° West 349 402 18,300 1,320 Climbing Boston Center
05:52AM 43.0439 -74.8792 278° West 349 402 19,500 1,320 Climbing Boston Center
05:53AM 43.0558 -75.0122 277° West 349 402 21,000 1,440 Climbing Boston Center
05:54AM 43.0692 -75.1472 278° West 353 406 22,500 1,500 Climbing Boston Center
05:55AM 43.0811 -75.2833 277° West 355 409 24,100 1,440 Climbing Boston Center
05:56AM 43.0931 -75.4172 277° West 352 405 25,500 900 Climbing Boston Center
05:57AM 43.1047 -75.5558 277° West 361 415 26,000 240 Climbing Boston Center
05:58AM 43.1172 -75.7025 277° West 377 434 26,000  Level Boston Center
05:59AM 43.1317 -75.8581 277° West 401 461 26,000  Level Boston Center
06:00AM 43.1458 -76.0153 277° West 413 475 26,000  Level Boston Center
06:01AM 43.1581 -76.1728 276° West 415 478 26,000  Level Boston Center
06:02AM 43.1231 -76.3203 252° West 412 474 26,000  Level Boston Center
06:03AM 43.0786 -76.4661 247° West 414 476 26,000  Level Boston Center
06:04AM 43.0217 -76.6400 246° West 418 481 26,000  Level Cleveland Center
06:05AM 42.9742 -76.7881 246° West 417 480 26,000  Level Cleveland Center
06:06AM 42.9264 -76.9342 246° West 421 484 26,000  Level Cleveland Center
06:07AM 42.8775 -77.0792 245° Southwest 421 484 26,000  Level Cleveland Center
06:08AM 42.8181 -77.2175 240° Southwest 422 486 26,000  Level Cleveland Center
06:09AM 42.7594 -77.3558 240° Southwest 423 487 26,000  Level Cleveland Center
06:10AM 42.6997 -77.4953 240° Southwest 426 490 26,000  Level Cleveland Center
06:11AM 42.6417 -77.6303 240° Southwest 426 490 26,000  Level Cleveland Center
06:12AM 42.5814 -77.7697 240° Southwest 427 491 26,000  Level Cleveland Center
06:13AM 42.5253 -77.8983 239° Southwest 431 496 26,000  Level Cleveland Center
06:14AM 42.4647 -78.0378 240° Southwest 430 495 26,000  Level Cleveland Center
06:15AM 42.4036 -78.2119 245° Southwest 429 494 26,000  Level Cleveland Center
06:16AM 42.3600 -78.3650 249° West 435 501 26,000  Level Cleveland Center
06:17AM 42.3172 -78.5147 249° West 430 495 26,000  Level Cleveland Center
06:18AM 42.2725 -78.6653 248° West 431 496 26,000  Level Cleveland Center
06:19AM 42.2289 -78.8169 249° West 433 498 26,000  Level Cleveland Center
06:20AM 42.1858 -78.9708 249° West 431 496 26,000  Level Cleveland Center
06:21AM 42.1425 -79.1206 249° West 432 497 26,000  Level Cleveland Center
06:22AM 42.0969 -79.2725 248° West 440 506 26,000  Level Cleveland Center
06:23AM 42.0525 -79.4214 248° West 438 504 26,000  Level Cleveland Center
06:24AM 42.0086 -79.5689 248° West 432 497 26,000  Level Cleveland Center
06:25AM 41.9619 -79.7217 248° West 447 514 26,000  Level Cleveland Center
06:26AM 41.9156 -79.8736 248° West 442 509 26,000  Level Cleveland Center
06:27AM 41.8633 -80.0519 249° West 437 503 26,000 -360 Level Cleveland Center
06:28AM 41.8167 -80.2031 248° West 438 504 25,300 -1,620 Descending Cleveland Center
06:29AM 41.7706 -80.3481 247° West 418 481 22,800 -2,520 Descending Cleveland Center
06:30AM 41.7281 -80.4808 247° West 388 447 20,200 -2,460 Descending Cleveland Center
06:31AM 41.6886 -80.6094 248° West 373 429 17,800 -2,340 Descending Cleveland Center
06:32AM 41.6483 -80.7369 247° West 371 427 15,500 -2,280 Descending Cleveland Center
06:33AM 41.6103 -80.8608 248° West 360 414 13,200 -2,220 Descending Cleveland Center
06:34AM 41.6039 -80.8897 254° West 354 407 12,700 -2,220 Descending Cleveland Center
06:34AM 41.5731 -80.9794 245° Southwest 348 400 11,000 -2,400 Descending Cleveland Center
06:34AM 41.5725 -80.9883 265° West 342 394 10,800 -1,020 Descending Cleveland Center
06:35AM 41.5367 -81.0944 246° West 337 388 10,000 -720 Descending Cleveland Center
06:36AM 41.5325 -81.1136 254° West 330 380 10,000  Level Cleveland Center
06:36AM 41.5219 -81.2106 262° West 328 377 10,000  Level Cleveland Center
06:37AM 41.5286 -81.2303 294° West 330 380 10,000 -540 Level Cleveland Center
06:37AM 41.5486 -81.3131 288° West 299 344 9,500 -840 Descending Cleveland Center
06:38AM 41.5558 -81.3267 305° West 269 310 9,200 -1,740 Descending Cleveland Center
06:38AM 41.5919 -81.3936 306° West 264 304 7,900 -1,560 Descending Cleveland Center
06:38AM 41.5900 -81.3956 217° Southwest 269 310 7,800 -1,620 Descending Cleveland Center
06:39AM 41.6117 -81.4806 289° West 250 288 6,300 -1,500 Descending Cleveland Center
06:39AM 41.6097 -81.4817 203° Southwest 249 287 6,300 -1,020 Level Cleveland Center
06:40AM 41.5931 -81.5700 256° West 213 245 5,200 -1,020 Descending Cleveland Center
06:40AM 41.5958 -81.5631 62° Northeast 233 268 5,300 -1,020 Climbing Cleveland Center
06:41AM 41.5567 -81.6256 230° Southwest 219 252 4,300 -1,020 Descending Cleveland Center
06:42AM 41.5547 -81.6231 136° Southeast 224 258 4,300 -300 Level Cleveland Center
06:42AM 41.5222 -81.6817 233° Southwest 183 211 4,000 -300 Descending Cleveland Center
06:43AM 41.5197 -81.6794 146° Southeast 209 241 4,000 -900 Level Cleveland Center
06:43AM 41.4906 -81.7294 232° Southwest 169 194 3,100 -900 Descending Cleveland Center
06:44AM 41.4897 -81.7275 120° Southeast 185 213 3,100 -900 Level Cleveland Center
06:45AM 41.4561 -81.7786 229° Southwest 164 189 2,100 -960 Descending Cleveland Center
06:45AM 41.4536 -81.7878 250° West 145 167 2,000 -720 Descending Cleveland Center
06:46AM 41.4342 -81.8158 227° Southwest 138 159 1,400 -660 Descending Cleveland Center
06:46AM 41.4339 -81.8208 266° West 124 143 1,400 -540 Level Cleveland Center
06:47AM 41.4133 -81.8478 225° Southwest 135 155 900 -540 Descending Cleveland Center